sensor_id;sensor_type;location;lat;lon;timestamp;pressure;altitude;pressure_sealevel;temperature;humidity
46464;BME280;32161;48.148;-1.554;2022-07-15T00:01:20;101777.56;;;19.40;70.70
46464;BME280;32161;48.148;-1.554;2022-07-15T00:03:48;101784.69;;;19.36;70.07
46464;BME280;32161;48.148;-1.554;2022-07-15T00:06:16;101782.44;;;19.33;69.34
46464;BME280;32161;48.148;-1.554;2022-07-15T00:08:43;101784.34;;;19.27;69.65
46464;BME280;32161;48.148;-1.554;2022-07-15T00:11:11;101791.75;;;19.22;70.74
46464;BME280;32161;48.148;-1.554;2022-07-15T00:13:40;101788.69;;;19.18;70.16
46464;BME280;32161;48.148;-1.554;2022-07-15T00:16:07;101781.47;;;19.12;69.69
46464;BME280;32161;48.148;-1.554;2022-07-15T00:18:35;101775.34;;;19.05;69.85
46464;BME280;32161;48.148;-1.554;2022-07-15T00:21:03;101775.00;;;18.96;71.19
46464;BME280;32161;48.148;-1.554;2022-07-15T00:23:30;101784.25;;;18.85;72.57
46464;BME280;32161;48.148;-1.554;2022-07-15T00:25:58;101771.72;;;18.72;73.42
46464;BME280;32161;48.148;-1.554;2022-07-15T00:28:26;101770.25;;;18.65;74.26
46464;BME280;32161;48.148;-1.554;2022-07-15T00:30:55;101767.72;;;18.63;74.58
46464;BME280;32161;48.148;-1.554;2022-07-15T00:33:23;101770.44;;;18.58;74.91
46464;BME280;32161;48.148;-1.554;2022-07-15T00:35:50;101763.91;;;18.64;74.57
46464;BME280;32161;48.148;-1.554;2022-07-15T00:38:18;101761.44;;;18.68;74.08
46464;BME280;32161;48.148;-1.554;2022-07-15T00:40:49;101765.41;;;18.72;73.65
46464;BME280;32161;48.148;-1.554;2022-07-15T00:43:18;101770.03;;;18.71;73.90
46464;BME280;32161;48.148;-1.554;2022-07-15T00:45:46;101766.94;;;18.68;74.18
46464;BME280;32161;48.148;-1.554;2022-07-15T00:48:15;101763.38;;;18.67;74.00
46464;BME280;32161;48.148;-1.554;2022-07-15T00:50:43;101758.69;;;18.68;73.66
46464;BME280;32161;48.148;-1.554;2022-07-15T00:53:16;101766.13;;;18.67;73.79
46464;BME280;32161;48.148;-1.554;2022-07-15T00:55:45;101770.56;;;18.68;72.98
46464;BME280;32161;48.148;-1.554;2022-07-15T00:58:17;101778.22;;;18.66;72.05
46464;BME280;32161;48.148;-1.554;2022-07-15T01:00:46;101786.22;;;18.68;72.17
46464;BME280;32161;48.148;-1.554;2022-07-15T01:03:17;101784.91;;;18.70;71.76
46464;BME280;32161;48.148;-1.554;2022-07-15T01:05:46;101785.75;;;18.71;70.92
46464;BME280;32161;48.148;-1.554;2022-07-15T01:08:15;101779.41;;;18.70;71.56
46464;BME280;32161;48.148;-1.554;2022-07-15T01:10:44;101779.56;;;18.64;71.40
46464;BME280;32161;48.148;-1.554;2022-07-15T01:13:12;101767.41;;;18.60;72.11
46464;BME280;32161;48.148;-1.554;2022-07-15T01:15:39;101765.50;;;18.60;72.08
46464;BME280;32161;48.148;-1.554;2022-07-15T01:18:07;101750.56;;;18.56;72.42
46464;BME280;32161;48.148;-1.554;2022-07-15T01:20:43;101743.94;;;18.52;73.33
46464;BME280;32161;48.148;-1.554;2022-07-15T01:23:12;101741.13;;;18.47;73.28
46464;BME280;32161;48.148;-1.554;2022-07-15T01:25:40;101744.47;;;18.49;72.36
46464;BME280;32161;48.148;-1.554;2022-07-15T01:28:09;101738.38;;;18.47;71.94
46464;BME280;32161;48.148;-1.554;2022-07-15T01:30:38;101733.44;;;18.49;72.38
46464;BME280;32161;48.148;-1.554;2022-07-15T01:33:06;101737.53;;;18.46;71.40
46464;BME280;32161;48.148;-1.554;2022-07-15T01:35:33;101723.78;;;18.46;71.97
46464;BME280;32161;48.148;-1.554;2022-07-15T01:38:02;101708.88;;;18.42;73.10
46464;BME280;32161;48.148;-1.554;2022-07-15T01:40:30;101713.16;;;18.33;73.61
46464;BME280;32161;48.148;-1.554;2022-07-15T01:42:58;101710.63;;;18.26;73.92
46464;BME280;32161;48.148;-1.554;2022-07-15T01:45:25;101706.19;;;18.25;73.48
46464;BME280;32161;48.148;-1.554;2022-07-15T01:47:53;101706.19;;;18.25;72.98
46464;BME280;32161;48.148;-1.554;2022-07-15T01:50:22;101696.88;;;18.26;72.89
46464;BME280;32161;48.148;-1.554;2022-07-15T01:52:49;101697.38;;;18.23;72.29
46464;BME280;32161;48.148;-1.554;2022-07-15T01:55:19;101694.59;;;18.18;72.27
46464;BME280;32161;48.148;-1.554;2022-07-15T01:57:46;101694.25;;;18.15;72.24
46464;BME280;32161;48.148;-1.554;2022-07-15T02:00:15;101695.09;;;18.15;71.77
46464;BME280;32161;48.148;-1.554;2022-07-15T02:02:43;101695.09;;;18.15;71.70
46464;BME280;32161;48.148;-1.554;2022-07-15T02:05:11;101694.50;;;18.13;72.61
46464;BME280;32161;48.148;-1.554;2022-07-15T02:07:38;101690.38;;;18.11;72.58
46464;BME280;32161;48.148;-1.554;2022-07-15T02:10:07;101697.19;;;18.08;73.01
46464;BME280;32161;48.148;-1.554;2022-07-15T02:12:36;101691.97;;;18.07;73.63
46464;BME280;32161;48.148;-1.554;2022-07-15T02:15:05;101688.94;;;18.08;73.08
46464;BME280;32161;48.148;-1.554;2022-07-15T02:17:33;101695.28;;;18.09;73.13
46464;BME280;32161;48.148;-1.554;2022-07-15T02:20:00;101694.72;;;18.07;72.92
46464;BME280;32161;48.148;-1.554;2022-07-15T02:22:28;101692.22;;;18.05;73.73
46464;BME280;32161;48.148;-1.554;2022-07-15T02:24:55;101694.91;;;18.00;73.47
46464;BME280;32161;48.148;-1.554;2022-07-15T02:27:23;101691.84;;;17.96;73.30
46464;BME280;32161;48.148;-1.554;2022-07-15T02:29:52;101685.19;;;17.92;74.55
46464;BME280;32161;48.148;-1.554;2022-07-15T02:32:20;101693.31;;;17.82;75.08
46464;BME280;32161;48.148;-1.554;2022-07-15T02:34:48;101697.91;;;17.76;74.65
46464;BME280;32161;48.148;-1.554;2022-07-15T02:37:16;101701.31;;;17.67;75.95
46464;BME280;32161;48.148;-1.554;2022-07-15T02:39:43;101701.44;;;17.55;76.11
46464;BME280;32161;48.148;-1.554;2022-07-15T02:42:11;101700.88;;;17.53;76.58
46464;BME280;32161;48.148;-1.554;2022-07-15T02:44:38;101700.34;;;17.56;76.77
46464;BME280;32161;48.148;-1.554;2022-07-15T02:47:08;101701.19;;;17.56;76.95
46464;BME280;32161;48.148;-1.554;2022-07-15T02:49:36;101701.75;;;17.58;77.29
46464;BME280;32161;48.148;-1.554;2022-07-15T02:52:04;101692.69;;;17.58;77.69
46464;BME280;32161;48.148;-1.554;2022-07-15T02:54:32;101698.44;;;17.56;77.55
46464;BME280;32161;48.148;-1.554;2022-07-15T02:57:00;101702.59;;;17.59;77.60
46464;BME280;32161;48.148;-1.554;2022-07-15T02:59:27;101696.09;;;17.65;76.90
46464;BME280;32161;48.148;-1.554;2022-07-15T03:01:55;101698.91;;;17.70;76.59
46464;BME280;32161;48.148;-1.554;2022-07-15T03:04:24;101704.41;;;17.70;76.68
46464;BME280;32161;48.148;-1.554;2022-07-15T03:06:51;101720.06;;;17.70;76.93
46464;BME280;32161;48.148;-1.554;2022-07-15T03:09:19;101716.81;;;17.73;76.33
46464;BME280;32161;48.148;-1.554;2022-07-15T03:11:47;101709.16;;;17.75;75.65
46464;BME280;32161;48.148;-1.554;2022-07-15T03:14:14;101712.72;;;17.75;75.97
46464;BME280;32161;48.148;-1.554;2022-07-15T03:16:42;101714.97;;;17.78;75.79
46464;BME280;32161;48.148;-1.554;2022-07-15T03:19:09;101706.50;;;17.80;75.35
46464;BME280;32161;48.148;-1.554;2022-07-15T03:21:38;101709.47;;;17.78;75.22
46464;BME280;32161;48.148;-1.554;2022-07-15T03:24:07;101701.97;;;17.74;75.95
46464;BME280;32161;48.148;-1.554;2022-07-15T03:26:36;101708.25;;;17.69;76.07
46464;BME280;32161;48.148;-1.554;2022-07-15T03:29:04;101709.56;;;17.67;76.06
46464;BME280;32161;48.148;-1.554;2022-07-15T03:31:31;101709.25;;;17.63;76.39
46464;BME280;32161;48.148;-1.554;2022-07-15T03:33:59;101711.66;;;17.60;76.66
46464;BME280;32161;48.148;-1.554;2022-07-15T03:36:27;101710.84;;;17.59;76.72
46464;BME280;32161;48.148;-1.554;2022-07-15T03:38:56;101702.59;;;17.59;76.11
46464;BME280;32161;48.148;-1.554;2022-07-15T03:41:24;101706.09;;;17.54;75.97
46464;BME280;32161;48.148;-1.554;2022-07-15T03:43:52;101705.78;;;17.51;76.52
46464;BME280;32161;48.148;-1.554;2022-07-15T03:46:19;101704.44;;;17.53;76.17
46464;BME280;32161;48.148;-1.554;2022-07-15T03:48:47;101705.28;;;17.54;76.12
46464;BME280;32161;48.148;-1.554;2022-07-15T03:51:15;101704.19;;;17.55;74.98
46464;BME280;32161;48.148;-1.554;2022-07-15T03:53:44;101707.44;;;17.52;74.68
46464;BME280;32161;48.148;-1.554;2022-07-15T03:56:13;101715.44;;;17.53;74.79
46464;BME280;32161;48.148;-1.554;2022-07-15T03:58:41;101719.03;;;17.54;74.75
46464;BME280;32161;48.148;-1.554;2022-07-15T04:01:10;101715.69;;;17.52;73.32
46464;BME280;32161;48.148;-1.554;2022-07-15T04:03:37;101714.28;;;17.49;73.92
46464;BME280;32161;48.148;-1.554;2022-07-15T04:06:05;101720.03;;;17.48;74.73
46464;BME280;32161;48.148;-1.554;2022-07-15T04:08:33;101726.53;;;17.42;75.14
46464;BME280;32161;48.148;-1.554;2022-07-15T04:11:00;101728.38;;;17.36;75.56
46464;BME280;32161;48.148;-1.554;2022-07-15T04:13:29;101724.72;;;17.30;75.55
46464;BME280;32161;48.148;-1.554;2022-07-15T04:15:57;101728.22;;;17.26;75.37
46464;BME280;32161;48.148;-1.554;2022-07-15T04:18:25;101723.22;;;17.23;74.10
46464;BME280;32161;48.148;-1.554;2022-07-15T04:20:52;101722.91;;;17.19;74.11
46464;BME280;32161;48.148;-1.554;2022-07-15T04:23:20;101733.88;;;17.19;73.89
46464;BME280;32161;48.148;-1.554;2022-07-15T04:25:49;101737.97;;;17.17;73.16
46464;BME280;32161;48.148;-1.554;2022-07-15T04:28:18;101743.72;;;17.15;74.60
46464;BME280;32161;48.148;-1.554;2022-07-15T04:30:47;101742.28;;;17.13;75.34
46464;BME280;32161;48.148;-1.554;2022-07-15T04:33:15;101745.19;;;17.06;75.66
46464;BME280;32161;48.148;-1.554;2022-07-15T04:35:43;101745.72;;;17.03;74.69
46464;BME280;32161;48.148;-1.554;2022-07-15T04:38:11;101756.94;;;17.01;74.34
46464;BME280;32161;48.148;-1.554;2022-07-15T04:40:39;101758.59;;;17.02;75.50
46464;BME280;32161;48.148;-1.554;2022-07-15T04:43:07;101763.78;;;16.99;75.86
46464;BME280;32161;48.148;-1.554;2022-07-15T04:45:35;101764.84;;;16.98;75.00
46464;BME280;32161;48.148;-1.554;2022-07-15T04:48:05;101763.44;;;16.95;76.32
46464;BME280;32161;48.148;-1.554;2022-07-15T04:50:53;101757.59;;;16.92;77.06
46464;BME280;32161;48.148;-1.554;2022-07-15T04:53:20;101760.69;;;16.95;77.10
46464;BME280;32161;48.148;-1.554;2022-07-15T04:55:48;101758.78;;;16.96;77.02
46464;BME280;32161;48.148;-1.554;2022-07-15T04:58:16;101752.69;;;16.94;77.04
46464;BME280;32161;48.148;-1.554;2022-07-15T05:00:45;101747.78;;;16.96;77.05
46464;BME280;32161;48.148;-1.554;2022-07-15T05:03:14;101753.63;;;16.99;76.78
46464;BME280;32161;48.148;-1.554;2022-07-15T05:05:42;101755.84;;;17.02;76.85
46464;BME280;32161;48.148;-1.554;2022-07-15T05:08:09;101754.25;;;17.06;76.67
46464;BME280;32161;48.148;-1.554;2022-07-15T05:10:37;101759.03;;;17.11;77.04
46464;BME280;32161;48.148;-1.554;2022-07-15T05:13:05;101755.19;;;17.12;77.51
46464;BME280;32161;48.148;-1.554;2022-07-15T05:15:32;101747.53;;;17.14;77.77
46464;BME280;32161;48.148;-1.554;2022-07-15T05:18:01;101754.78;;;17.20;77.92
46464;BME280;32161;48.148;-1.554;2022-07-15T05:20:30;101753.78;;;17.26;77.79
46464;BME280;32161;48.148;-1.554;2022-07-15T05:22:58;101760.44;;;17.30;77.69
46464;BME280;32161;48.148;-1.554;2022-07-15T05:25:25;101749.78;;;17.34;77.42
46464;BME280;32161;48.148;-1.554;2022-07-15T05:27:53;101756.34;;;17.33;77.89
46464;BME280;32161;48.148;-1.554;2022-07-15T05:30:21;101753.69;;;17.38;78.02
46464;BME280;32161;48.148;-1.554;2022-07-15T05:32:48;101745.44;;;17.38;77.97
46464;BME280;32161;48.148;-1.554;2022-07-15T05:35:16;101739.69;;;17.40;78.38
46464;BME280;32161;48.148;-1.554;2022-07-15T05:37:45;101745.84;;;17.47;77.99
46464;BME280;32161;48.148;-1.554;2022-07-15T05:40:13;101738.25;;;17.54;78.16
46464;BME280;32161;48.148;-1.554;2022-07-15T05:42:41;101738.94;;;17.61;77.96
46464;BME280;32161;48.148;-1.554;2022-07-15T05:45:10;101736.56;;;17.70;77.55
46464;BME280;32161;48.148;-1.554;2022-07-15T05:47:38;101745.13;;;17.73;77.89
46464;BME280;32161;48.148;-1.554;2022-07-15T05:50:06;101736.97;;;17.78;77.80
46464;BME280;32161;48.148;-1.554;2022-07-15T05:52:34;101734.06;;;17.85;78.33
46464;BME280;32161;48.148;-1.554;2022-07-15T05:55:04;101735.22;;;17.89;78.57
46464;BME280;32161;48.148;-1.554;2022-07-15T05:57:32;101733.34;;;17.95;78.77
46464;BME280;32161;48.148;-1.554;2022-07-15T06:00:00;101735.66;;;18.03;78.93
46464;BME280;32161;48.148;-1.554;2022-07-15T06:02:27;101742.69;;;18.16;78.88
46464;BME280;32161;48.148;-1.554;2022-07-15T06:04:57;101732.06;;;18.24;78.88
46464;BME280;32161;48.148;-1.554;2022-07-15T06:07:24;101727.50;;;18.35;77.79
46464;BME280;32161;48.148;-1.554;2022-07-15T06:09:52;101730.94;;;18.47;76.84
46464;BME280;32161;48.148;-1.554;2022-07-15T06:12:21;101730.53;;;18.61;74.99
46464;BME280;32161;48.148;-1.554;2022-07-15T06:14:49;101735.09;;;18.72;73.71
46464;BME280;32161;48.148;-1.554;2022-07-15T06:17:16;101738.75;;;18.83;73.21
46464;BME280;32161;48.148;-1.554;2022-07-15T06:19:44;101741.94;;;18.96;71.94
46464;BME280;32161;48.148;-1.554;2022-07-15T06:22:12;101738.91;;;18.98;71.52
46464;BME280;32161;48.148;-1.554;2022-07-15T06:24:40;101735.75;;;19.16;70.89
46464;BME280;32161;48.148;-1.554;2022-07-15T06:27:07;101739.66;;;19.25;71.40
46464;BME280;32161;48.148;-1.554;2022-07-15T06:29:36;101747.72;;;19.32;71.13
46464;BME280;32161;48.148;-1.554;2022-07-15T06:32:05;101750.56;;;19.42;70.20
46464;BME280;32161;48.148;-1.554;2022-07-15T06:34:33;101743.19;;;19.53;70.02
46464;BME280;32161;48.148;-1.554;2022-07-15T06:37:01;101743.56;;;19.67;70.29
46464;BME280;32161;48.148;-1.554;2022-07-15T06:39:28;101746.47;;;19.87;69.66
46464;BME280;32161;48.148;-1.554;2022-07-15T06:41:56;101743.78;;;20.03;69.10
46464;BME280;32161;48.148;-1.554;2022-07-15T06:44:24;101744.66;;;20.18;69.15
46464;BME280;32161;48.148;-1.554;2022-07-15T06:46:53;101748.00;;;20.31;67.74
46464;BME280;32161;48.148;-1.554;2022-07-15T06:49:20;101737.25;;;20.44;67.42
46464;BME280;32161;48.148;-1.554;2022-07-15T06:51:48;101745.34;;;20.56;67.61
46464;BME280;32161;48.148;-1.554;2022-07-15T06:54:16;101731.56;;;20.66;68.58
46464;BME280;32161;48.148;-1.554;2022-07-15T06:56:44;101738.47;;;20.74;66.45
46464;BME280;32161;48.148;-1.554;2022-07-15T06:59:12;101736.00;;;20.88;66.29
46464;BME280;32161;48.148;-1.554;2022-07-15T07:01:40;101737.94;;;21.08;65.97
46464;BME280;32161;48.148;-1.554;2022-07-15T07:04:09;101736.84;;;21.19;65.11
46464;BME280;32161;48.148;-1.554;2022-07-15T07:06:36;101739.31;;;21.31;63.97
46464;BME280;32161;48.148;-1.554;2022-07-15T07:09:04;101730.19;;;21.25;64.35
46464;BME280;32161;48.148;-1.554;2022-07-15T07:11:32;101728.25;;;21.31;64.25
46464;BME280;32161;48.148;-1.554;2022-07-15T07:14:00;101719.97;;;21.31;64.00
46464;BME280;32161;48.148;-1.554;2022-07-15T07:16:28;101719.16;;;21.35;64.38
46464;BME280;32161;48.148;-1.554;2022-07-15T07:18:55;101716.66;;;21.39;64.80
46464;BME280;32161;48.148;-1.554;2022-07-15T07:21:24;101716.59;;;21.59;63.77
46464;BME280;32161;48.148;-1.554;2022-07-15T07:23:52;101713.81;;;21.69;63.51
46464;BME280;32161;48.148;-1.554;2022-07-15T07:26:20;101714.88;;;21.84;63.35
46464;BME280;32161;48.148;-1.554;2022-07-15T07:28:47;101719.78;;;22.07;62.66
46464;BME280;32161;48.148;-1.554;2022-07-15T07:31:15;101712.53;;;22.16;62.03
46464;BME280;32161;48.148;-1.554;2022-07-15T07:33:43;101716.13;;;22.22;60.71
46464;BME280;32161;48.148;-1.554;2022-07-15T07:36:10;101711.41;;;22.23;60.21
46464;BME280;32161;48.148;-1.554;2022-07-15T07:38:39;101706.66;;;22.33;59.88
46464;BME280;32161;48.148;-1.554;2022-07-15T07:41:07;101715.44;;;22.46;60.37
46464;BME280;32161;48.148;-1.554;2022-07-15T07:43:35;101717.03;;;22.52;60.65
46464;BME280;32161;48.148;-1.554;2022-07-15T07:46:04;101712.22;;;22.67;59.65
46464;BME280;32161;48.148;-1.554;2022-07-15T07:48:41;101724.63;;;22.80;59.12
46464;BME280;32161;48.148;-1.554;2022-07-15T07:51:09;101719.03;;;22.85;57.87
46464;BME280;32161;48.148;-1.554;2022-07-15T07:53:45;101709.84;;;22.95;58.63
46464;BME280;32161;48.148;-1.554;2022-07-15T07:56:13;101710.81;;;23.09;58.37
46464;BME280;32161;48.148;-1.554;2022-07-15T07:59:09;101704.84;;;23.26;57.17
46464;BME280;32161;48.148;-1.554;2022-07-15T08:01:37;101705.78;;;23.40;57.73
46464;BME280;32161;48.148;-1.554;2022-07-15T08:04:05;101705.56;;;23.66;55.50
46464;BME280;32161;48.148;-1.554;2022-07-15T08:06:33;101704.69;;;23.66;55.25
46464;BME280;32161;48.148;-1.554;2022-07-15T08:09:02;101703.56;;;23.72;56.20
46464;BME280;32161;48.148;-1.554;2022-07-15T08:11:30;101697.88;;;23.82;55.17
46464;BME280;32161;48.148;-1.554;2022-07-15T08:13:58;101689.34;;;23.97;55.27
46464;BME280;32161;48.148;-1.554;2022-07-15T08:16:26;101696.19;;;24.05;54.18
46464;BME280;32161;48.148;-1.554;2022-07-15T08:18:54;101701.38;;;24.11;54.51
46464;BME280;32161;48.148;-1.554;2022-07-15T08:21:21;101691.13;;;24.31;53.37
46464;BME280;32161;48.148;-1.554;2022-07-15T08:23:58;101697.16;;;24.57;52.75
46464;BME280;32161;48.148;-1.554;2022-07-15T08:26:27;101689.03;;;24.60;51.12
46464;BME280;32161;48.148;-1.554;2022-07-15T08:28:55;101689.63;;;24.57;52.22
46464;BME280;32161;48.148;-1.554;2022-07-15T08:31:22;101686.53;;;24.78;51.89
46464;BME280;32161;48.148;-1.554;2022-07-15T08:33:50;101682.34;;;24.94;50.88
46464;BME280;32161;48.148;-1.554;2022-07-15T08:36:19;101677.75;;;25.03;51.02
46464;BME280;32161;48.148;-1.554;2022-07-15T08:38:46;101686.59;;;25.24;49.93
46464;BME280;32161;48.148;-1.554;2022-07-15T08:41:16;101681.97;;;25.33;48.28
46464;BME280;32161;48.148;-1.554;2022-07-15T08:43:45;101693.72;;;25.44;49.02
46464;BME280;32161;48.148;-1.554;2022-07-15T08:46:14;101685.28;;;25.49;48.62
46464;BME280;32161;48.148;-1.554;2022-07-15T08:48:49;101679.59;;;25.54;48.14
46464;BME280;32161;48.148;-1.554;2022-07-15T08:51:22;101681.47;;;25.59;47.58
46464;BME280;32161;48.148;-1.554;2022-07-15T08:54:13;101669.00;;;25.56;45.73
46464;BME280;32161;48.148;-1.554;2022-07-15T08:56:58;101673.03;;;25.78;46.46
46464;BME280;32161;48.148;-1.554;2022-07-15T08:59:27;101671.69;;;25.89;45.75
46464;BME280;32161;48.148;-1.554;2022-07-15T09:01:55;101670.41;;;26.09;46.45
46464;BME280;32161;48.148;-1.554;2022-07-15T09:04:22;101670.81;;;26.16;46.35
46464;BME280;32161;48.148;-1.554;2022-07-15T09:06:50;101670.19;;;26.19;44.77
46464;BME280;32161;48.148;-1.554;2022-07-15T09:09:30;101668.81;;;26.30;44.73
46464;BME280;32161;48.148;-1.554;2022-07-15T09:12:02;101671.88;;;26.43;44.67
46464;BME280;32161;48.148;-1.554;2022-07-15T09:14:33;101665.56;;;26.51;45.71
46464;BME280;32161;48.148;-1.554;2022-07-15T09:17:23;101675.84;;;26.64;45.36
46464;BME280;32161;48.148;-1.554;2022-07-15T09:20:06;101684.34;;;26.82;44.59
46464;BME280;32161;48.148;-1.554;2022-07-15T09:22:51;101693.91;;;26.89;44.55
46464;BME280;32161;48.148;-1.554;2022-07-15T09:25:20;101682.94;;;26.93;42.56
46464;BME280;32161;48.148;-1.554;2022-07-15T09:27:48;101694.16;;;27.01;44.03
46464;BME280;32161;48.148;-1.554;2022-07-15T09:30:23;101685.78;;;27.24;43.61
46464;BME280;32161;48.148;-1.554;2022-07-15T09:33:12;101696.81;;;27.29;42.00
46464;BME280;32161;48.148;-1.554;2022-07-15T09:36:07;101694.34;;;27.27;41.15
46464;BME280;32161;48.148;-1.554;2022-07-15T09:38:40;101688.56;;;27.24;42.82
46464;BME280;32161;48.148;-1.554;2022-07-15T09:41:13;101687.34;;;27.39;43.94
46464;BME280;32161;48.148;-1.554;2022-07-15T09:43:51;101691.66;;;27.54;42.17
46464;BME280;32161;48.148;-1.554;2022-07-15T09:46:24;101683.69;;;27.69;42.22
46464;BME280;32161;48.148;-1.554;2022-07-15T09:48:53;101687.50;;;27.82;41.22
46464;BME280;32161;48.148;-1.554;2022-07-15T09:51:22;101686.13;;;27.71;41.32
46464;BME280;32161;48.148;-1.554;2022-07-15T09:53:50;101689.00;;;27.80;41.39
46464;BME280;32161;48.148;-1.554;2022-07-15T09:56:20;101672.25;;;27.88;41.50
46464;BME280;32161;48.148;-1.554;2022-07-15T09:58:52;101671.97;;;28.07;40.81
46464;BME280;32161;48.148;-1.554;2022-07-15T10:01:22;101678.03;;;27.92;40.72
46464;BME280;32161;48.148;-1.554;2022-07-15T10:03:52;101672.94;;;28.03;42.14
46464;BME280;32161;48.148;-1.554;2022-07-15T10:06:21;101677.72;;;28.19;42.23
46464;BME280;32161;48.148;-1.554;2022-07-15T10:08:53;101671.16;;;28.15;39.48
46464;BME280;32161;48.148;-1.554;2022-07-15T10:11:21;101665.41;;;28.20;40.11
46464;BME280;32161;48.148;-1.554;2022-07-15T10:14:09;101669.88;;;28.39;41.24
46464;BME280;32161;48.148;-1.554;2022-07-15T10:17:22;101671.72;;;28.52;39.82
46464;BME280;32161;48.148;-1.554;2022-07-15T10:20:23;101674.66;;;28.64;40.29
46464;BME280;32161;48.148;-1.554;2022-07-15T10:22:56;101671.19;;;28.59;39.73
46464;BME280;32161;48.148;-1.554;2022-07-15T10:25:53;101663.94;;;28.66;40.13
46464;BME280;32161;48.148;-1.554;2022-07-15T10:28:38;101661.97;;;28.67;39.82
46464;BME280;32161;48.148;-1.554;2022-07-15T10:31:16;101662.78;;;28.76;39.58
46464;BME280;32161;48.148;-1.554;2022-07-15T10:34:19;101661.94;;;28.84;39.89
46464;BME280;32161;48.148;-1.554;2022-07-15T10:36:57;101671.53;;;28.57;39.51
46464;BME280;32161;48.148;-1.554;2022-07-15T10:39:28;101669.56;;;28.58;39.42
46464;BME280;32161;48.148;-1.554;2022-07-15T10:41:58;101667.25;;;28.68;40.05
46464;BME280;32161;48.148;-1.554;2022-07-15T10:44:28;101659.00;;;28.81;39.83
46464;BME280;32161;48.148;-1.554;2022-07-15T10:47:18;101663.25;;;28.95;39.03
46464;BME280;32161;48.148;-1.554;2022-07-15T10:49:49;101665.88;;;29.01;38.72
46464;BME280;32161;48.148;-1.554;2022-07-15T10:52:19;101662.25;;;29.09;39.97
46464;BME280;32161;48.148;-1.554;2022-07-15T10:55:00;101666.88;;;29.05;39.78
46464;BME280;32161;48.148;-1.554;2022-07-15T10:57:53;101667.00;;;29.17;38.56
46464;BME280;32161;48.148;-1.554;2022-07-15T11:00:30;101670.63;;;29.17;39.38
46464;BME280;32161;48.148;-1.554;2022-07-15T11:03:07;101667.97;;;29.21;38.99
46464;BME280;32161;48.148;-1.554;2022-07-15T11:06:00;101665.00;;;29.26;39.47
46464;BME280;32161;48.148;-1.554;2022-07-15T11:08:54;101655.69;;;29.43;39.41
46464;BME280;32161;48.148;-1.554;2022-07-15T11:11:48;101656.97;;;29.54;40.41
46464;BME280;32161;48.148;-1.554;2022-07-15T11:14:46;101653.25;;;29.41;38.32
46464;BME280;32161;48.148;-1.554;2022-07-15T11:17:17;101657.53;;;29.39;38.15
46464;BME280;32161;48.148;-1.554;2022-07-15T11:19:51;101662.22;;;29.56;38.06
46464;BME280;32161;48.148;-1.554;2022-07-15T11:22:22;101663.84;;;29.65;40.22
46464;BME280;32161;48.148;-1.554;2022-07-15T11:24:50;101653.97;;;29.59;39.64
46464;BME280;32161;48.148;-1.554;2022-07-15T11:27:19;101656.22;;;29.75;38.59
46464;BME280;32161;48.148;-1.554;2022-07-15T11:29:50;101657.31;;;29.82;38.10
46464;BME280;32161;48.148;-1.554;2022-07-15T11:32:20;101658.25;;;29.95;37.89
46464;BME280;32161;48.148;-1.554;2022-07-15T11:34:51;101656.69;;;30.06;38.18
46464;BME280;32161;48.148;-1.554;2022-07-15T11:37:23;101658.69;;;30.27;38.81
46464;BME280;32161;48.148;-1.554;2022-07-15T11:40:09;101652.06;;;30.31;37.50
46464;BME280;32161;48.148;-1.554;2022-07-15T11:42:38;101652.06;;;30.31;38.13
46464;BME280;32161;48.148;-1.554;2022-07-15T11:45:33;101644.88;;;30.43;36.37
46464;BME280;32161;48.148;-1.554;2022-07-15T11:48:05;101661.78;;;30.34;37.30
46464;BME280;32161;48.148;-1.554;2022-07-15T11:50:34;101638.97;;;30.35;36.73
46464;BME280;32161;48.148;-1.554;2022-07-15T11:53:11;101659.94;;;30.38;37.90
46464;BME280;32161;48.148;-1.554;2022-07-15T11:55:51;101635.00;;;30.36;38.41
46464;BME280;32161;48.148;-1.554;2022-07-15T11:58:29;101643.97;;;30.51;38.04
46464;BME280;32161;48.148;-1.554;2022-07-15T12:00:58;101645.81;;;30.47;37.25
46464;BME280;32161;48.148;-1.554;2022-07-15T12:03:34;101646.84;;;30.42;36.25
46464;BME280;32161;48.148;-1.554;2022-07-15T12:06:06;101645.50;;;30.27;36.10
46464;BME280;32161;48.148;-1.554;2022-07-15T12:08:38;101634.50;;;30.22;36.37
46464;BME280;32161;48.148;-1.554;2022-07-15T12:11:19;101632.19;;;30.15;37.38
46464;BME280;32161;48.148;-1.554;2022-07-15T12:13:51;101636.81;;;30.20;37.63
46464;BME280;32161;48.148;-1.554;2022-07-15T12:16:26;101637.47;;;30.17;36.23
46464;BME280;32161;48.148;-1.554;2022-07-15T12:18:59;101637.50;;;30.38;36.82
46464;BME280;32161;48.148;-1.554;2022-07-15T12:21:29;101632.75;;;30.51;37.34
46464;BME280;32161;48.148;-1.554;2022-07-15T12:24:10;101623.81;;;30.70;37.75
46464;BME280;32161;48.148;-1.554;2022-07-15T12:26:41;101634.50;;;30.76;36.93
46464;BME280;32161;48.148;-1.554;2022-07-15T12:29:11;101626.53;;;30.78;36.94
46464;BME280;32161;48.148;-1.554;2022-07-15T12:31:41;101632.66;;;30.80;36.84
46464;BME280;32161;48.148;-1.554;2022-07-15T12:34:09;101635.25;;;30.64;37.03
46464;BME280;32161;48.148;-1.554;2022-07-15T12:36:37;101636.16;;;30.89;37.50
46464;BME280;32161;48.148;-1.554;2022-07-15T12:39:13;101639.72;;;30.99;37.02
46464;BME280;32161;48.148;-1.554;2022-07-15T12:41:44;101638.09;;;31.10;35.30
46464;BME280;32161;48.148;-1.554;2022-07-15T12:44:25;101631.75;;;31.01;35.90
46464;BME280;32161;48.148;-1.554;2022-07-15T12:46:55;101625.94;;;31.06;38.27
46464;BME280;32161;48.148;-1.554;2022-07-15T12:49:53;101633.06;;;31.28;36.85
46464;BME280;32161;48.148;-1.554;2022-07-15T12:52:29;101627.16;;;31.54;36.84
46464;BME280;32161;48.148;-1.554;2022-07-15T12:55:12;101625.50;;;31.65;36.30
46464;BME280;32161;48.148;-1.554;2022-07-15T12:57:41;101622.66;;;31.77;36.19
46464;BME280;32161;48.148;-1.554;2022-07-15T13:00:12;101630.19;;;31.85;36.05